Accueil
METAR-TAF:

METAR-TAF

Aéroports :

Mönchengladbach, Allemagne

latitude: 51-13-49N, longitude: 006-30-16E, altitude: 38 m

Observation

Le bulletin a été fait il y a 39 minutes, à 02:50 UTC
Vent 6 kt de nord
Température 8°C
Humidité 81%
Pression 1028 hPa
Visibilité 10 km ou plus

METAR: EDLN 240250Z AUTO 01006KT 9999 // OVC037/// 08/05 Q1028

Heure: 04:29 (03:29 UTC)

Prévision

Le bulletin a été fait il y a 10 heures et 29 minutes, à 17:00 UTC
Prévision valable du 23 à 18 UTC au 24 à 03 UTC
Vent 4 kt de nord-ouest
Visibilité: 5000 m
Ciel couvert à une hauteur de 3500 ft
brume sèche
Evoluant progressivement
du 23 à 21 UTC au 23 à 24 UTC
Vent 5 kt de nord/nord-est

TAF: EDLN 231700Z 2318/2403 32004KT 5000 HZ OVC035 BECMG 2321/2324 02005KT

Observations et prévisions météorologiques de plus de 4000 aéroports (messages METAR et TAF).

Les stations disponibles sont représentées par des disques jaunes et rouges sur la carte.

Passer la souris dessus pour voir le nom de la station.

Cliquer dessus pour voir les observations et prévisions météorologiques.

Pour changer de carte: cliquez sur les boutons verts avec une croix noire pour zoomer, sur le bouton vert avec un tiret pour effectuer un zoom arrière, ou sur les flèches vertes pour les cartes adjacentes.


METAR-TAF: